sensor_id;sensor_type;location;lat;lon;timestamp;temperature;humidity
16999;DHT22;10211;49.476;11.010;2023-04-24T00:00:53;10.30;99.90
16999;DHT22;10211;49.476;11.010;2023-04-24T00:03:22;10.40;99.90
16999;DHT22;10211;49.476;11.010;2023-04-24T00:05:48;10.30;99.90
16999;DHT22;10211;49.476;11.010;2023-04-24T00:08:16;10.50;99.90
16999;DHT22;10211;49.476;11.010;2023-04-24T00:10:44;10.30;99.90
16999;DHT22;10211;49.476;11.010;2023-04-24T00:13:11;10.30;99.90
16999;DHT22;10211;49.476;11.010;2023-04-24T00:15:38;10.30;99.90
16999;DHT22;10211;49.476;11.010;2023-04-24T00:18:05;10.30;99.90
16999;DHT22;10211;49.476;11.010;2023-04-24T00:20:31;10.30;99.90
16999;DHT22;10211;49.476;11.010;2023-04-24T00:22:58;10.20;99.90
16999;DHT22;10211;49.476;11.010;2023-04-24T00:25:25;10.20;99.90
16999;DHT22;10211;49.476;11.010;2023-04-24T00:27:53;10.20;99.90
16999;DHT22;10211;49.476;11.010;2023-04-24T00:30:20;10.20;99.90
16999;DHT22;10211;49.476;11.010;2023-04-24T00:32:47;10.50;99.90
16999;DHT22;10211;49.476;11.010;2023-04-24T00:35:14;10.20;99.90
16999;DHT22;10211;49.476;11.010;2023-04-24T00:37:41;10.10;99.90
16999;DHT22;10211;49.476;11.010;2023-04-24T00:40:08;10.10;99.90
16999;DHT22;10211;49.476;11.010;2023-04-24T00:42:35;10.10;99.90
16999;DHT22;10211;49.476;11.010;2023-04-24T00:45:04;10.00;99.90
16999;DHT22;10211;49.476;11.010;2023-04-24T00:47:33;10.00;99.90
16999;DHT22;10211;49.476;11.010;2023-04-24T00:50:01;10.00;99.90
16999;DHT22;10211;49.476;11.010;2023-04-24T00:52:28;10.00;99.90
16999;DHT22;10211;49.476;11.010;2023-04-24T00:54:56;10.00;99.90
16999;DHT22;10211;49.476;11.010;2023-04-24T00:57:23;9.90;99.90
16999;DHT22;10211;49.476;11.010;2023-04-24T00:59:51;9.90;99.90
16999;DHT22;10211;49.476;11.010;2023-04-24T01:02:21;9.90;99.90
16999;DHT22;10211;49.476;11.010;2023-04-24T01:04:50;9.90;99.90
16999;DHT22;10211;49.476;11.010;2023-04-24T01:07:19;9.90;99.90
16999;DHT22;10211;49.476;11.010;2023-04-24T01:09:48;9.90;99.90
16999;DHT22;10211;49.476;11.010;2023-04-24T01:12:16;9.90;99.90
16999;DHT22;10211;49.476;11.010;2023-04-24T01:14:43;9.90;99.90
16999;DHT22;10211;49.476;11.010;2023-04-24T01:17:10;9.90;99.90
16999;DHT22;10211;49.476;11.010;2023-04-24T01:19:40;10.00;99.90
16999;DHT22;10211;49.476;11.010;2023-04-24T01:22:13;10.00;99.90
16999;DHT22;10211;49.476;11.010;2023-04-24T01:24:40;9.90;99.90
16999;DHT22;10211;49.476;11.010;2023-04-24T01:27:08;9.90;99.90
16999;DHT22;10211;49.476;11.010;2023-04-24T01:29:35;9.80;99.90
16999;DHT22;10211;49.476;11.010;2023-04-24T01:32:02;9.90;99.90
16999;DHT22;10211;49.476;11.010;2023-04-24T01:34:30;9.90;99.90
16999;DHT22;10211;49.476;11.010;2023-04-24T01:36:57;9.90;99.90
16999;DHT22;10211;49.476;11.010;2023-04-24T01:39:26;10.00;99.90
16999;DHT22;10211;49.476;11.010;2023-04-24T01:41:54;10.00;99.90
16999;DHT22;10211;49.476;11.010;2023-04-24T01:44:21;9.90;99.90
16999;DHT22;10211;49.476;11.010;2023-04-24T01:46:48;10.00;99.90
16999;DHT22;10211;49.476;11.010;2023-04-24T01:49:15;10.00;99.90
16999;DHT22;10211;49.476;11.010;2023-04-24T01:51:42;10.00;99.90
16999;DHT22;10211;49.476;11.010;2023-04-24T01:54:09;10.00;99.90
16999;DHT22;10211;49.476;11.010;2023-04-24T01:56:40;10.00;99.90
16999;DHT22;10211;49.476;11.010;2023-04-24T01:59:09;10.00;99.90
16999;DHT22;10211;49.476;11.010;2023-04-24T02:01:37;10.00;99.90
16999;DHT22;10211;49.476;11.010;2023-04-24T02:04:04;10.00;99.90
16999;DHT22;10211;49.476;11.010;2023-04-24T02:06:31;10.00;99.90
16999;DHT22;10211;49.476;11.010;2023-04-24T02:08:57;10.00;99.90
16999;DHT22;10211;49.476;11.010;2023-04-24T02:11:24;9.90;99.90
16999;DHT22;10211;49.476;11.010;2023-04-24T02:13:53;10.00;99.90
16999;DHT22;10211;49.476;11.010;2023-04-24T02:16:19;10.00;99.90
16999;DHT22;10211;49.476;11.010;2023-04-24T02:18:46;10.00;99.90
16999;DHT22;10211;49.476;11.010;2023-04-24T02:21:13;10.00;99.90
16999;DHT22;10211;49.476;11.010;2023-04-24T02:23:40;9.90;99.90
16999;DHT22;10211;49.476;11.010;2023-04-24T02:26:06;9.90;99.90
16999;DHT22;10211;49.476;11.010;2023-04-24T02:28:33;9.80;99.90
16999;DHT22;10211;49.476;11.010;2023-04-24T02:31:02;9.80;99.90
16999;DHT22;10211;49.476;11.010;2023-04-24T02:33:28;9.80;99.90
16999;DHT22;10211;49.476;11.010;2023-04-24T02:35:55;9.70;99.90
16999;DHT22;10211;49.476;11.010;2023-04-24T02:38:22;9.80;99.90
16999;DHT22;10211;49.476;11.010;2023-04-24T02:40:49;9.70;99.90
16999;DHT22;10211;49.476;11.010;2023-04-24T02:43:15;9.70;99.90
16999;DHT22;10211;49.476;11.010;2023-04-24T02:45:42;9.70;99.90
16999;DHT22;10211;49.476;11.010;2023-04-24T02:48:10;9.70;99.90
16999;DHT22;10211;49.476;11.010;2023-04-24T02:50:37;9.80;99.90
16999;DHT22;10211;49.476;11.010;2023-04-24T02:53:04;9.70;99.90
16999;DHT22;10211;49.476;11.010;2023-04-24T02:55:30;9.70;99.90
16999;DHT22;10211;49.476;11.010;2023-04-24T02:57:57;9.80;99.90
16999;DHT22;10211;49.476;11.010;2023-04-24T03:00:24;9.70;99.90
16999;DHT22;10211;49.476;11.010;2023-04-24T03:02:51;9.70;99.90
16999;DHT22;10211;49.476;11.010;2023-04-24T03:05:20;9.70;99.90
16999;DHT22;10211;49.476;11.010;2023-04-24T03:07:46;9.70;99.90
16999;DHT22;10211;49.476;11.010;2023-04-24T03:10:13;9.70;99.90
16999;DHT22;10211;49.476;11.010;2023-04-24T03:12:40;9.60;99.90
16999;DHT22;10211;49.476;11.010;2023-04-24T03:15:07;9.60;99.90
16999;DHT22;10211;49.476;11.010;2023-04-24T03:17:34;9.60;99.90
16999;DHT22;10211;49.476;11.010;2023-04-24T03:20:02;9.60;99.90
16999;DHT22;10211;49.476;11.010;2023-04-24T03:22:32;9.50;99.90
16999;DHT22;10211;49.476;11.010;2023-04-24T03:24:59;9.50;99.90
16999;DHT22;10211;49.476;11.010;2023-04-24T03:27:25;9.70;99.90
16999;DHT22;10211;49.476;11.010;2023-04-24T03:29:52;9.50;99.90
16999;DHT22;10211;49.476;11.010;2023-04-24T03:32:20;9.50;99.90
16999;DHT22;10211;49.476;11.010;2023-04-24T03:34:47;9.50;99.90
16999;DHT22;10211;49.476;11.010;2023-04-24T03:37:14;9.40;99.90
16999;DHT22;10211;49.476;11.010;2023-04-24T03:39:42;9.40;99.90
16999;DHT22;10211;49.476;11.010;2023-04-24T03:42:09;9.40;99.90
16999;DHT22;10211;49.476;11.010;2023-04-24T03:44:35;9.30;99.90
16999;DHT22;10211;49.476;11.010;2023-04-24T03:47:02;9.30;99.90
16999;DHT22;10211;49.476;11.010;2023-04-24T03:49:29;9.40;99.90
16999;DHT22;10211;49.476;11.010;2023-04-24T03:51:56;9.30;99.90
16999;DHT22;10211;49.476;11.010;2023-04-24T03:54:22;9.30;99.90
16999;DHT22;10211;49.476;11.010;2023-04-24T03:56:50;9.40;99.90
16999;DHT22;10211;49.476;11.010;2023-04-24T03:59:17;9.30;99.90
16999;DHT22;10211;49.476;11.010;2023-04-24T04:01:44;9.30;99.90
16999;DHT22;10211;49.476;11.010;2023-04-24T04:04:11;9.30;99.90
16999;DHT22;10211;49.476;11.010;2023-04-24T04:06:38;9.30;99.90
16999;DHT22;10211;49.476;11.010;2023-04-24T04:09:04;9.30;99.90
16999;DHT22;10211;49.476;11.010;2023-04-24T04:11:34;9.30;99.90
16999;DHT22;10211;49.476;11.010;2023-04-24T04:14:02;9.30;99.90
16999;DHT22;10211;49.476;11.010;2023-04-24T04:16:29;9.30;99.90
16999;DHT22;10211;49.476;11.010;2023-04-24T04:18:56;9.30;99.90
16999;DHT22;10211;49.476;11.010;2023-04-24T04:21:22;9.30;99.90
16999;DHT22;10211;49.476;11.010;2023-04-24T04:23:49;9.20;99.90
16999;DHT22;10211;49.476;11.010;2023-04-24T04:26:16;9.30;99.90
16999;DHT22;10211;49.476;11.010;2023-04-24T04:28:44;9.30;99.90
16999;DHT22;10211;49.476;11.010;2023-04-24T04:31:12;9.30;99.90
16999;DHT22;10211;49.476;11.010;2023-04-24T04:33:39;9.30;99.90
16999;DHT22;10211;49.476;11.010;2023-04-24T04:36:06;9.30;99.90
16999;DHT22;10211;49.476;11.010;2023-04-24T04:38:34;9.30;99.90
16999;DHT22;10211;49.476;11.010;2023-04-24T04:41:01;9.30;99.90
16999;DHT22;10211;49.476;11.010;2023-04-24T04:43:27;9.30;99.90
16999;DHT22;10211;49.476;11.010;2023-04-24T04:45:54;9.30;99.90
16999;DHT22;10211;49.476;11.010;2023-04-24T04:48:22;9.30;99.90
16999;DHT22;10211;49.476;11.010;2023-04-24T04:50:49;9.40;99.90
16999;DHT22;10211;49.476;11.010;2023-04-24T04:53:16;9.40;99.90
16999;DHT22;10211;49.476;11.010;2023-04-24T04:55:43;9.40;99.90
16999;DHT22;10211;49.476;11.010;2023-04-24T04:58:10;9.40;99.90
16999;DHT22;10211;49.476;11.010;2023-04-24T05:00:36;9.40;99.90
16999;DHT22;10211;49.476;11.010;2023-04-24T05:03:03;9.40;99.90
16999;DHT22;10211;49.476;11.010;2023-04-24T05:05:32;10.10;99.90
16999;DHT22;10211;49.476;11.010;2023-04-24T05:07:58;9.50;99.90
16999;DHT22;10211;49.476;11.010;2023-04-24T05:10:25;9.50;99.90
16999;DHT22;10211;49.476;11.010;2023-04-24T05:12:52;9.60;99.90
16999;DHT22;10211;49.476;11.010;2023-04-24T05:15:18;9.60;99.90
16999;DHT22;10211;49.476;11.010;2023-04-24T05:17:45;9.60;99.90
16999;DHT22;10211;49.476;11.010;2023-04-24T05:20:12;9.70;99.90
16999;DHT22;10211;49.476;11.010;2023-04-24T05:22:40;9.70;99.90
16999;DHT22;10211;49.476;11.010;2023-04-24T05:25:07;9.80;99.90
16999;DHT22;10211;49.476;11.010;2023-04-24T05:27:34;9.90;99.90
16999;DHT22;10211;49.476;11.010;2023-04-24T05:30:01;9.90;99.90
16999;DHT22;10211;49.476;11.010;2023-04-24T05:32:27;10.00;99.90
16999;DHT22;10211;49.476;11.010;2023-04-24T05:34:54;10.10;99.90
16999;DHT22;10211;49.476;11.010;2023-04-24T05:37:21;10.10;99.90
16999;DHT22;10211;49.476;11.010;2023-04-24T05:39:49;10.10;99.90
16999;DHT22;10211;49.476;11.010;2023-04-24T05:42:15;10.10;99.90
16999;DHT22;10211;49.476;11.010;2023-04-24T05:44:42;10.20;99.90
16999;DHT22;10211;49.476;11.010;2023-04-24T05:47:09;10.20;99.90
16999;DHT22;10211;49.476;11.010;2023-04-24T05:49:36;10.40;99.90
16999;DHT22;10211;49.476;11.010;2023-04-24T05:52:02;10.40;99.90
16999;DHT22;10211;49.476;11.010;2023-04-24T05:54:30;10.50;99.90
16999;DHT22;10211;49.476;11.010;2023-04-24T05:56:59;10.60;99.90
16999;DHT22;10211;49.476;11.010;2023-04-24T05:59:26;10.70;99.90
16999;DHT22;10211;49.476;11.010;2023-04-24T06:01:53;10.80;99.90
16999;DHT22;10211;49.476;11.010;2023-04-24T06:04:20;10.90;99.90
16999;DHT22;10211;49.476;11.010;2023-04-24T06:06:47;10.90;99.90
16999;DHT22;10211;49.476;11.010;2023-04-24T06:09:16;10.80;99.90
16999;DHT22;10211;49.476;11.010;2023-04-24T06:11:43;11.00;99.90
16999;DHT22;10211;49.476;11.010;2023-04-24T06:14:11;11.10;99.90
16999;DHT22;10211;49.476;11.010;2023-04-24T06:16:38;11.20;99.90
16999;DHT22;10211;49.476;11.010;2023-04-24T06:19:05;11.20;99.90
16999;DHT22;10211;49.476;11.010;2023-04-24T06:21:31;11.00;99.90
16999;DHT22;10211;49.476;11.010;2023-04-24T06:23:58;11.00;99.90
16999;DHT22;10211;49.476;11.010;2023-04-24T06:26:25;10.80;99.90
16999;DHT22;10211;49.476;11.010;2023-04-24T06:28:52;10.60;99.90
16999;DHT22;10211;49.476;11.010;2023-04-24T06:31:21;10.50;99.90
16999;DHT22;10211;49.476;11.010;2023-04-24T06:33:48;10.40;99.90
16999;DHT22;10211;49.476;11.010;2023-04-24T06:36:15;10.40;99.90
16999;DHT22;10211;49.476;11.010;2023-04-24T06:38:42;10.40;99.90
16999;DHT22;10211;49.476;11.010;2023-04-24T06:41:09;10.40;99.90
16999;DHT22;10211;49.476;11.010;2023-04-24T06:43:36;10.10;99.90
16999;DHT22;10211;49.476;11.010;2023-04-24T06:46:03;10.20;99.90
16999;DHT22;10211;49.476;11.010;2023-04-24T06:48:31;10.30;99.90
16999;DHT22;10211;49.476;11.010;2023-04-24T06:50:57;10.30;99.90
16999;DHT22;10211;49.476;11.010;2023-04-24T06:53:24;10.40;99.90
16999;DHT22;10211;49.476;11.010;2023-04-24T06:55:51;10.60;99.90
16999;DHT22;10211;49.476;11.010;2023-04-24T06:58:18;10.70;99.90
16999;DHT22;10211;49.476;11.010;2023-04-24T07:00:45;10.80;99.90
16999;DHT22;10211;49.476;11.010;2023-04-24T07:03:12;10.90;99.90
16999;DHT22;10211;49.476;11.010;2023-04-24T07:05:40;11.00;99.90
16999;DHT22;10211;49.476;11.010;2023-04-24T07:08:07;11.10;99.90
16999;DHT22;10211;49.476;11.010;2023-04-24T07:10:34;11.20;99.90
16999;DHT22;10211;49.476;11.010;2023-04-24T07:13:01;11.20;99.90
16999;DHT22;10211;49.476;11.010;2023-04-24T07:15:28;11.30;99.90
16999;DHT22;10211;49.476;11.010;2023-04-24T07:17:55;11.30;99.90
16999;DHT22;10211;49.476;11.010;2023-04-24T07:20:21;11.40;99.90
16999;DHT22;10211;49.476;11.010;2023-04-24T07:22:49;11.60;99.90
16999;DHT22;10211;49.476;11.010;2023-04-24T07:25:17;11.70;99.90
16999;DHT22;10211;49.476;11.010;2023-04-24T07:27:44;11.80;99.90
16999;DHT22;10211;49.476;11.010;2023-04-24T07:30:11;11.80;99.90
16999;DHT22;10211;49.476;11.010;2023-04-24T07:32:38;11.70;99.90
16999;DHT22;10211;49.476;11.010;2023-04-24T07:35:05;11.60;99.90
16999;DHT22;10211;49.476;11.010;2023-04-24T07:37:32;11.50;99.90
16999;DHT22;10211;49.476;11.010;2023-04-24T07:40:00;11.50;99.90
16999;DHT22;10211;49.476;11.010;2023-04-24T07:42:28;11.50;99.90
16999;DHT22;10211;49.476;11.010;2023-04-24T07:44:55;11.40;99.90
16999;DHT22;10211;49.476;11.010;2023-04-24T07:47:22;11.50;99.90
16999;DHT22;10211;49.476;11.010;2023-04-24T07:49:49;11.60;99.90
16999;DHT22;10211;49.476;11.010;2023-04-24T07:52:16;11.80;99.90
16999;DHT22;10211;49.476;11.010;2023-04-24T07:54:42;12.20;99.90
16999;DHT22;10211;49.476;11.010;2023-04-24T07:57:10;12.60;99.90
16999;DHT22;10211;49.476;11.010;2023-04-24T07:59:37;12.90;99.90
16999;DHT22;10211;49.476;11.010;2023-04-24T08:02:04;13.20;99.90
16999;DHT22;10211;49.476;11.010;2023-04-24T08:04:31;13.70;99.90
16999;DHT22;10211;49.476;11.010;2023-04-24T08:06:58;14.10;99.90
16999;DHT22;10211;49.476;11.010;2023-04-24T08:09:25;14.40;99.90
16999;DHT22;10211;49.476;11.010;2023-04-24T08:11:52;14.30;99.90
16999;DHT22;10211;49.476;11.010;2023-04-24T08:14:20;14.30;99.90
16999;DHT22;10211;49.476;11.010;2023-04-24T08:16:46;14.20;99.90
16999;DHT22;10211;49.476;11.010;2023-04-24T08:19:13;13.90;99.90
16999;DHT22;10211;49.476;11.010;2023-04-24T08:21:40;13.50;99.90
16999;DHT22;10211;49.476;11.010;2023-04-24T08:24:06;13.20;99.90
16999;DHT22;10211;49.476;11.010;2023-04-24T08:26:34;13.10;99.90
16999;DHT22;10211;49.476;11.010;2023-04-24T08:29:00;13.20;99.90
16999;DHT22;10211;49.476;11.010;2023-04-24T08:31:29;13.20;99.90
16999;DHT22;10211;49.476;11.010;2023-04-24T08:33:55;13.20;99.90
16999;DHT22;10211;49.476;11.010;2023-04-24T08:36:22;13.20;99.90
16999;DHT22;10211;49.476;11.010;2023-04-24T08:38:49;13.20;99.90
16999;DHT22;10211;49.476;11.010;2023-04-24T08:41:18;13.30;99.90
16999;DHT22;10211;49.476;11.010;2023-04-24T08:43:46;13.60;99.90
16999;DHT22;10211;49.476;11.010;2023-04-24T08:46:13;13.70;99.90
16999;DHT22;10211;49.476;11.010;2023-04-24T08:48:43;13.90;99.90
16999;DHT22;10211;49.476;11.010;2023-04-24T08:51:10;14.00;98.20
16999;DHT22;10211;49.476;11.010;2023-04-24T08:53:38;14.00;99.20
16999;DHT22;10211;49.476;11.010;2023-04-24T08:56:05;14.00;97.80
16999;DHT22;10211;49.476;11.010;2023-04-24T08:58:33;13.70;98.30
16999;DHT22;10211;49.476;11.010;2023-04-24T09:01:00;13.30;98.70
16999;DHT22;10211;49.476;11.010;2023-04-24T09:03:28;13.00;99.00
16999;DHT22;10211;49.476;11.010;2023-04-24T09:05:57;12.90;99.90
16999;DHT22;10211;49.476;11.010;2023-04-24T09:08:25;13.00;99.90
16999;DHT22;10211;49.476;11.010;2023-04-24T09:10:52;13.20;99.90
16999;DHT22;10211;49.476;11.010;2023-04-24T09:13:19;13.50;99.00
16999;DHT22;10211;49.476;11.010;2023-04-24T09:15:46;14.10;98.90
16999;DHT22;10211;49.476;11.010;2023-04-24T09:18:13;15.00;97.60
16999;DHT22;10211;49.476;11.010;2023-04-24T09:20:59;15.70;96.30
16999;DHT22;10211;49.476;11.010;2023-04-24T09:23:27;15.60;95.20
16999;DHT22;10211;49.476;11.010;2023-04-24T09:25:55;15.70;93.80
16999;DHT22;10211;49.476;11.010;2023-04-24T09:28:25;15.50;93.50
16999;DHT22;10211;49.476;11.010;2023-04-24T09:31:05;14.90;93.70
16999;DHT22;10211;49.476;11.010;2023-04-24T09:33:32;14.20;95.30
16999;DHT22;10211;49.476;11.010;2023-04-24T09:36:01;13.80;96.40
16999;DHT22;10211;49.476;11.010;2023-04-24T09:38:32;14.40;95.90
16999;DHT22;10211;49.476;11.010;2023-04-24T09:41:00;15.80;94.60
16999;DHT22;10211;49.476;11.010;2023-04-24T09:43:28;17.10;92.70
16999;DHT22;10211;49.476;11.010;2023-04-24T09:45:56;18.30;90.90
16999;DHT22;10211;49.476;11.010;2023-04-24T09:48:30;20.90;84.10
16999;DHT22;10211;49.476;11.010;2023-04-24T09:50:57;23.80;73.00
16999;DHT22;10211;49.476;11.010;2023-04-24T09:53:25;25.80;61.60
16999;DHT22;10211;49.476;11.010;2023-04-24T09:55:52;26.00;54.80
16999;DHT22;10211;49.476;11.010;2023-04-24T09:58:24;26.30;54.10
16999;DHT22;10211;49.476;11.010;2023-04-24T10:00:54;25.30;53.60
16999;DHT22;10211;49.476;11.010;2023-04-24T10:03:24;23.40;57.10
16999;DHT22;10211;49.476;11.010;2023-04-24T10:05:52;21.10;58.50
16999;DHT22;10211;49.476;11.010;2023-04-24T10:08:19;21.00;59.50
16999;DHT22;10211;49.476;11.010;2023-04-24T10:10:48;22.80;57.70
16999;DHT22;10211;49.476;11.010;2023-04-24T10:13:15;25.60;54.10
16999;DHT22;10211;49.476;11.010;2023-04-24T10:15:42;26.40;49.80
16999;DHT22;10211;49.476;11.010;2023-04-24T10:18:10;26.70;49.40
16999;DHT22;10211;49.476;11.010;2023-04-24T10:20:38;27.30;46.20
16999;DHT22;10211;49.476;11.010;2023-04-24T10:23:06;27.20;48.40
16999;DHT22;10211;49.476;11.010;2023-04-24T10:25:34;25.70;48.30
16999;DHT22;10211;49.476;11.010;2023-04-24T10:28:03;23.50;52.80
16999;DHT22;10211;49.476;11.010;2023-04-24T10:30:31;23.70;53.40
16999;DHT22;10211;49.476;11.010;2023-04-24T10:33:00;24.80;51.40
16999;DHT22;10211;49.476;11.010;2023-04-24T10:35:30;23.60;53.50
16999;DHT22;10211;49.476;11.010;2023-04-24T10:38:01;20.50;59.30
16999;DHT22;10211;49.476;11.010;2023-04-24T10:40:31;18.00;65.80
16999;DHT22;10211;49.476;11.010;2023-04-24T10:42:58;17.20;70.60
16999;DHT22;10211;49.476;11.010;2023-04-24T10:45:27;19.50;66.30
16999;DHT22;10211;49.476;11.010;2023-04-24T10:47:57;19.40;65.70
16999;DHT22;10211;49.476;11.010;2023-04-24T10:50:26;19.00;67.20
16999;DHT22;10211;49.476;11.010;2023-04-24T10:53:05;17.90;67.90
16999;DHT22;10211;49.476;11.010;2023-04-24T10:55:43;16.10;71.50
16999;DHT22;10211;49.476;11.010;2023-04-24T10:58:10;14.60;76.70
16999;DHT22;10211;49.476;11.010;2023-04-24T11:00:39;14.20;77.70
16999;DHT22;10211;49.476;11.010;2023-04-24T11:03:07;14.00;78.50
16999;DHT22;10211;49.476;11.010;2023-04-24T11:05:52;13.70;78.00
16999;DHT22;10211;49.476;11.010;2023-04-24T11:08:25;13.30;79.70
16999;DHT22;10211;49.476;11.010;2023-04-24T11:10:57;13.50;79.70
16999;DHT22;10211;49.476;11.010;2023-04-24T11:13:25;14.10;78.00
16999;DHT22;10211;49.476;11.010;2023-04-24T11:16:16;14.20;75.90
16999;DHT22;10211;49.476;11.010;2023-04-24T11:18:50;14.40;73.30
16999;DHT22;10211;49.476;11.010;2023-04-24T11:21:20;14.50;73.90
16999;DHT22;10211;49.476;11.010;2023-04-24T11:23:47;14.60;73.50
16999;DHT22;10211;49.476;11.010;2023-04-24T11:26:18;15.70;72.20
16999;DHT22;10211;49.476;11.010;2023-04-24T11:28:46;17.40;68.40
16999;DHT22;10211;49.476;11.010;2023-04-24T11:31:40;18.20;67.50
16999;DHT22;10211;49.476;11.010;2023-04-24T11:34:09;20.80;62.60
16999;DHT22;10211;49.476;11.010;2023-04-24T11:36:36;21.10;60.30
16999;DHT22;10211;49.476;11.010;2023-04-24T11:39:03;20.10;61.50
16999;DHT22;10211;49.476;11.010;2023-04-24T11:41:30;19.70;62.90
16999;DHT22;10211;49.476;11.010;2023-04-24T11:43:57;18.30;64.60
16999;DHT22;10211;49.476;11.010;2023-04-24T11:46:27;17.30;67.60
16999;DHT22;10211;49.476;11.010;2023-04-24T11:48:56;16.10;71.00
16999;DHT22;10211;49.476;11.010;2023-04-24T11:51:23;14.70;73.50
16999;DHT22;10211;49.476;11.010;2023-04-24T11:53:50;14.00;77.50
16999;DHT22;10211;49.476;11.010;2023-04-24T11:56:18;13.80;78.90
16999;DHT22;10211;49.476;11.010;2023-04-24T11:58:45;14.40;78.40
16999;DHT22;10211;49.476;11.010;2023-04-24T12:01:12;13.90;77.20
16999;DHT22;10211;49.476;11.010;2023-04-24T12:03:39;14.20;75.60
16999;DHT22;10211;49.476;11.010;2023-04-24T12:06:11;14.30;75.40
16999;DHT22;10211;49.476;11.010;2023-04-24T12:08:37;14.40;76.00
16999;DHT22;10211;49.476;11.010;2023-04-24T12:11:06;14.40;74.60
16999;DHT22;10211;49.476;11.010;2023-04-24T12:13:33;14.50;75.00
16999;DHT22;10211;49.476;11.010;2023-04-24T12:16:02;15.00;73.90
16999;DHT22;10211;49.476;11.010;2023-04-24T12:18:29;15.00;73.60
16999;DHT22;10211;49.476;11.010;2023-04-24T12:21:16;15.20;74.70
16999;DHT22;10211;49.476;11.010;2023-04-24T12:23:43;15.20;75.30
16999;DHT22;10211;49.476;11.010;2023-04-24T12:26:10;16.30;73.60
16999;DHT22;10211;49.476;11.010;2023-04-24T12:28:38;17.60;70.60
16999;DHT22;10211;49.476;11.010;2023-04-24T12:31:06;18.40;67.30
16999;DHT22;10211;49.476;11.010;2023-04-24T12:33:34;19.30;66.10
16999;DHT22;10211;49.476;11.010;2023-04-24T12:36:01;19.20;63.90
16999;DHT22;10211;49.476;11.010;2023-04-24T12:38:29;17.90;66.50
16999;DHT22;10211;49.476;11.010;2023-04-24T12:41:03;17.20;67.60
16999;DHT22;10211;49.476;11.010;2023-04-24T12:43:30;16.70;69.50
16999;DHT22;10211;49.476;11.010;2023-04-24T12:45:57;16.00;70.40
16999;DHT22;10211;49.476;11.010;2023-04-24T12:48:24;15.80;71.50
16999;DHT22;10211;49.476;11.010;2023-04-24T12:50:51;15.40;72.50
16999;DHT22;10211;49.476;11.010;2023-04-24T12:53:18;15.10;72.90
16999;DHT22;10211;49.476;11.010;2023-04-24T12:55:46;14.70;73.10
16999;DHT22;10211;49.476;11.010;2023-04-24T12:58:18;14.40;74.80
16999;DHT22;10211;49.476;11.010;2023-04-24T13:00:45;14.10;74.90
16999;DHT22;10211;49.476;11.010;2023-04-24T13:03:12;14.30;75.20
16999;DHT22;10211;49.476;11.010;2023-04-24T13:05:39;14.50;74.50
16999;DHT22;10211;49.476;11.010;2023-04-24T13:08:06;14.90;74.50
16999;DHT22;10211;49.476;11.010;2023-04-24T13:10:32;15.60;74.80
16999;DHT22;10211;49.476;11.010;2023-04-24T13:13:00;16.10;71.40
16999;DHT22;10211;49.476;11.010;2023-04-24T13:15:27;15.50;72.70
16999;DHT22;10211;49.476;11.010;2023-04-24T13:17:54;14.80;73.90
16999;DHT22;10211;49.476;11.010;2023-04-24T13:20:21;14.20;76.10
16999;DHT22;10211;49.476;11.010;2023-04-24T13:22:47;13.80;77.60
16999;DHT22;10211;49.476;11.010;2023-04-24T13:25:14;13.40;78.50
16999;DHT22;10211;49.476;11.010;2023-04-24T13:27:42;13.20;79.60
16999;DHT22;10211;49.476;11.010;2023-04-24T13:30:11;13.10;80.60
16999;DHT22;10211;49.476;11.010;2023-04-24T13:32:38;13.20;80.90
16999;DHT22;10211;49.476;11.010;2023-04-24T13:35:05;13.30;80.80
16999;DHT22;10211;49.476;11.010;2023-04-24T13:37:32;13.40;79.10
16999;DHT22;10211;49.476;11.010;2023-04-24T13:39:59;13.50;79.20
16999;DHT22;10211;49.476;11.010;2023-04-24T13:42:26;13.70;79.70
16999;DHT22;10211;49.476;11.010;2023-04-24T13:44:53;13.50;79.20
16999;DHT22;10211;49.476;11.010;2023-04-24T13:47:21;13.10;79.00
16999;DHT22;10211;49.476;11.010;2023-04-24T13:49:48;12.90;79.50
16999;DHT22;10211;49.476;11.010;2023-04-24T13:52:15;12.90;80.70
16999;DHT22;10211;49.476;11.010;2023-04-24T13:54:42;12.90;81.00
16999;DHT22;10211;49.476;11.010;2023-04-24T13:57:10;13.10;81.60
16999;DHT22;10211;49.476;11.010;2023-04-24T13:59:37;13.10;80.40
16999;DHT22;10211;49.476;11.010;2023-04-24T14:02:06;13.10;80.00
16999;DHT22;10211;49.476;11.010;2023-04-24T14:04:34;13.10;80.60
16999;DHT22;10211;49.476;11.010;2023-04-24T14:07:01;13.50;80.20
16999;DHT22;10211;49.476;11.010;2023-04-24T14:09:27;13.90;79.90
16999;DHT22;10211;49.476;11.010;2023-04-24T14:11:54;14.30;79.00
16999;DHT22;10211;49.476;11.010;2023-04-24T14:14:21;14.60;79.00
16999;DHT22;10211;49.476;11.010;2023-04-24T14:16:48;14.40;77.60
16999;DHT22;10211;49.476;11.010;2023-04-24T14:19:15;14.30;78.90
16999;DHT22;10211;49.476;11.010;2023-04-24T14:21:43;14.30;78.60
16999;DHT22;10211;49.476;11.010;2023-04-24T14:24:09;14.30;79.00
16999;DHT22;10211;49.476;11.010;2023-04-24T14:26:36;14.40;79.20
16999;DHT22;10211;49.476;11.010;2023-04-24T14:29:03;15.00;79.70
16999;DHT22;10211;49.476;11.010;2023-04-24T14:31:30;14.60;79.10
16999;DHT22;10211;49.476;11.010;2023-04-24T14:33:57;14.50;79.80
16999;DHT22;10211;49.476;11.010;2023-04-24T14:36:24;14.40;79.50
16999;DHT22;10211;49.476;11.010;2023-04-24T14:38:52;14.10;80.10
16999;DHT22;10211;49.476;11.010;2023-04-24T14:41:18;13.70;80.70
16999;DHT22;10211;49.476;11.010;2023-04-24T14:43:46;13.30;80.10
16999;DHT22;10211;49.476;11.010;2023-04-24T14:46:12;13.40;79.40
16999;DHT22;10211;49.476;11.010;2023-04-24T14:48:39;13.50;79.00
16999;DHT22;10211;49.476;11.010;2023-04-24T14:51:06;13.50;79.80
16999;DHT22;10211;49.476;11.010;2023-04-24T14:53:33;13.50;80.90
16999;DHT22;10211;49.476;11.010;2023-04-24T14:56:02;13.60;82.30
16999;DHT22;10211;49.476;11.010;2023-04-24T14:58:29;13.90;81.30
16999;DHT22;10211;49.476;11.010;2023-04-24T15:00:56;13.70;80.20
16999;DHT22;10211;49.476;11.010;2023-04-24T15:03:22;13.80;79.60
16999;DHT22;10211;49.476;11.010;2023-04-24T15:05:50;13.50;79.20
16999;DHT22;10211;49.476;11.010;2023-04-24T15:08:17;13.30;80.40
16999;DHT22;10211;49.476;11.010;2023-04-24T15:10:44;13.40;80.80
16999;DHT22;10211;49.476;11.010;2023-04-24T15:13:12;13.50;81.10
16999;DHT22;10211;49.476;11.010;2023-04-24T15:15:39;13.60;81.30
16999;DHT22;10211;49.476;11.010;2023-04-24T15:18:07;13.80;81.70
16999;DHT22;10211;49.476;11.010;2023-04-24T15:20:36;13.90;80.90
16999;DHT22;10211;49.476;11.010;2023-04-24T15:23:04;13.70;81.10